Time;durP1;ratioP1;P1;durP2;ratioP2;P2;SDS_P1;SDS_P2;PMS_P1;PMS_P2;Temp;Humidity;BMP_temperature;BMP_pressure;BME280_temperature;BME280_humidity;BME280_pressure;Samples;Min_cycle;Max_cycle;Signal;HPM_P1;HPM_P2
2023/04/15 00:01:35;;;;;;;9.85;4.75;;;7.30;99.90;;;;;;5064544;28;20411;-64
2023/04/15 00:04:01;;;;;;;9.73;4.90;;;7.30;99.90;;;;;;5068652;28;20045;-64
2023/04/15 00:06:27;;;;;;;9.23;4.47;;;7.30;99.90;;;;;;5063408;28;20135;-64
2023/04/15 00:08:53;;;;;;;7.40;4.30;;;7.30;99.90;;;;;;5048260;28;20116;-64
2023/04/15 00:11:19;;;;;;;7.65;5.32;;;7.20;99.90;;;;;;5083205;28;20450;-64
2023/04/15 00:13:45;;;;;;;7.32;4.55;;;7.20;99.90;;;;;;5067209;28;20094;-64
2023/04/15 00:16:11;;;;;;;7.05;4.95;;;7.10;99.90;;;;;;5068584;28;20450;-64
2023/04/15 00:18:37;;;;;;;6.95;4.70;;;7.00;99.90;;;;;;5067022;28;20110;-64
2023/04/15 00:21:04;;;;;;;9.65;4.38;;;7.00;99.90;;;;;;5068386;28;20056;-64
2023/04/15 00:23:29;;;;;;;8.60;4.75;;;7.00;99.90;;;;;;5060917;28;20479;-64
2023/04/15 00:25:55;;;;;;;10.05;5.80;;;6.90;99.90;;;;;;5063852;28;20059;-64
2023/04/15 00:28:21;;;;;;;8.07;4.35;;;6.90;99.90;;;;;;5068172;28;20067;-64
2023/04/15 00:30:47;;;;;;;7.47;4.85;;;6.90;99.90;;;;;;5067734;28;20049;-64
2023/04/15 00:33:13;;;;;;;8.70;4.80;;;6.80;99.90;;;;;;5068533;28;20135;-64
2023/04/15 00:35:39;;;;;;;6.20;5.07;;;6.80;99.90;;;;;;5067068;28;20487;-64
2023/04/15 00:38:08;;;;;;;14.75;5.18;;;6.70;99.90;;;;;;5066538;28;20048;-64
2023/04/15 00:40:34;;;;;;;9.82;5.45;;;6.70;99.90;;;;;;5067563;28;20043;-84
2023/04/15 00:43:00;;;;;;;8.77;5.60;;;6.70;99.90;;;;;;5066569;28;20098;-64
2023/04/15 00:45:29;;;;;;;11.05;4.57;;;6.60;99.90;;;;;;5067584;28;20039;-64
2023/04/15 00:47:55;;;;;;;6.53;4.63;;;6.60;99.90;;;;;;5066915;28;20048;-65
2023/04/15 00:50:21;;;;;;;7.05;5.13;;;6.50;99.90;;;;;;5067599;28;20097;-64
2023/04/15 00:52:47;;;;;;;7.25;4.50;;;6.40;99.90;;;;;;5067271;28;20127;-64
2023/04/15 00:55:13;;;;;;;8.95;4.95;;;6.30;99.90;;;;;;5067856;28;20131;-64
2023/04/15 00:57:40;;;;;;;7.13;5.13;;;6.30;99.90;;;;;;5067021;28;20036;-78
2023/04/15 01:00:10;;;;;;;5.78;4.68;;;6.30;99.90;;;;;;5049759;28;20052;-64
2023/04/15 01:02:36;;;;;;;4.90;4.40;;;6.20;99.90;;;;;;5063431;28;20056;-64
2023/04/15 01:05:03;;;;;;;5.22;4.60;;;6.20;99.90;;;;;;5067301;28;20041;-65
2023/04/15 01:07:29;;;;;;;9.52;4.50;;;6.30;99.90;;;;;;5067856;28;20044;-64
2023/04/15 01:09:55;;;;;;;7.32;5.50;;;6.30;99.90;;;;;;5066551;28;20049;-65
2023/04/15 01:12:23;;;;;;;6.32;4.70;;;6.30;99.90;;;;;;5067517;28;20059;-64
2023/04/15 01:14:49;;;;;;;7.45;5.10;;;6.30;99.90;;;;;;5066689;28;20391;-64
2023/04/15 01:17:15;;;;;;;8.48;4.70;;;6.20;99.90;;;;;;5067403;28;20524;-64
2023/04/15 01:19:41;;;;;;;7.63;5.47;;;6.20;99.90;;;;;;5066541;28;20080;-64
2023/04/15 01:22:06;;;;;;;9.98;5.80;;;6.20;99.90;;;;;;5067253;28;20064;-64
2023/04/15 01:24:33;;;;;;;7.38;5.85;;;6.30;99.90;;;;;;5067635;28;20045;-64
2023/04/15 01:26:58;;;;;;;9.50;5.70;;;6.20;99.90;;;;;;5065927;28;20513;-65
2023/04/15 01:29:24;;;;;;;8.18;5.53;;;6.20;99.90;;;;;;5067214;28;20056;-64
2023/04/15 01:31:54;;;;;;;9.93;5.75;;;6.20;99.90;;;;;;5066743;28;20051;-64
2023/04/15 01:34:21;;;;;;;7.85;6.18;;;6.20;99.90;;;;;;5067282;28;20482;-64
2023/04/15 01:36:47;;;;;;;10.30;6.40;;;6.20;99.90;;;;;;5081979;28;20048;-64
2023/04/15 01:39:13;;;;;;;10.15;6.60;;;6.20;99.90;;;;;;5067124;28;20045;-64
2023/04/15 01:41:41;;;;;;;7.63;5.95;;;6.20;99.90;;;;;;5066810;28;20515;-64
2023/04/15 01:44:07;;;;;;;14.52;7.32;;;6.10;99.90;;;;;;5066273;28;20041;-64
2023/04/15 01:46:33;;;;;;;10.15;6.72;;;6.00;99.90;;;;;;5067494;28;20127;-64
2023/04/15 01:48:59;;;;;;;11.38;6.45;;;6.00;99.90;;;;;;5066211;28;20391;-64
2023/04/15 01:51:24;;;;;;;12.52;6.85;;;6.00;99.90;;;;;;5067385;28;20049;-64
2023/04/15 01:53:51;;;;;;;12.55;7.18;;;5.90;99.90;;;;;;5064838;28;20047;-64
2023/04/15 01:56:17;;;;;;;10.02;7.53;;;6.00;99.90;;;;;;5065922;28;20521;-65
2023/04/15 01:58:43;;;;;;;10.63;7.05;;;6.00;99.90;;;;;;5051467;28;20409;-65
2023/04/15 02:01:10;;;;;;;12.48;7.63;;;6.00;99.90;;;;;;5054912;28;20041;-64
2023/04/15 02:03:37;;;;;;;10.57;7.55;;;6.00;99.90;;;;;;5059954;28;20162;-64
2023/04/15 02:06:03;;;;;;;13.00;7.70;;;6.00;99.90;;;;;;5052711;28;20040;-65
2023/04/15 02:08:29;;;;;;;13.43;7.88;;;5.90;99.90;;;;;;5064315;28;20127;-64
2023/04/15 02:10:55;;;;;;;10.38;7.43;;;5.90;99.90;;;;;;5065587;28;20499;-64
2023/04/15 02:13:21;;;;;;;11.25;8.38;;;6.00;99.90;;;;;;5067557;28;20098;-64
2023/04/15 02:15:47;;;;;;;13.50;9.38;;;6.10;99.90;;;;;;5066246;28;20044;-65
2023/04/15 02:18:15;;;;;;;12.65;8.73;;;6.00;99.90;;;;;;5082073;28;20135;-65
2023/04/15 02:20:42;;;;;;;13.27;9.05;;;5.90;99.90;;;;;;5065746;28;20060;-64
2023/04/15 02:23:08;;;;;;;15.50;8.93;;;6.00;99.90;;;;;;5064739;28;20049;-65
2023/04/15 02:25:33;;;;;;;12.88;9.05;;;5.90;99.90;;;;;;5069257;28;20049;-64
2023/04/15 02:27:59;;;;;;;13.23;9.23;;;5.90;99.90;;;;;;5069748;28;20044;-64
2023/04/15 02:30:26;;;;;;;12.98;9.90;;;5.90;99.90;;;;;;5070365;28;20578;-64
2023/04/15 02:32:51;;;;;;;14.20;10.68;;;6.00;99.90;;;;;;5068474;28;20040;-65
2023/04/15 02:35:20;;;;;;;16.52;10.95;;;6.10;99.90;;;;;;5071013;28;20429;-65
2023/04/15 02:37:46;;;;;;;15.63;10.57;;;6.10;99.90;;;;;;5069966;28;20044;-83
2023/04/15 02:40:12;;;;;;;16.35;10.88;;;6.10;99.90;;;;;;5070004;28;20390;-70
2023/04/15 02:42:39;;;;;;;15.57;11.13;;;6.10;99.90;;;;;;5070363;28;20048;-64
2023/04/15 02:45:06;;;;;;;16.48;10.90;;;6.20;99.90;;;;;;5071888;28;20045;-65
2023/04/15 02:47:32;;;;;;;15.70;10.40;;;6.20;99.90;;;;;;5075959;28;20040;-65
2023/04/15 02:49:59;;;;;;;14.57;10.55;;;6.20;99.90;;;;;;5067655;28;20063;-65
2023/04/15 02:52:25;;;;;;;13.10;10.13;;;6.20;99.90;;;;;;5070224;28;20502;-65
2023/04/15 02:54:50;;;;;;;17.40;10.35;;;6.20;99.90;;;;;;5069310;28;20050;-65
2023/04/15 02:57:16;;;;;;;15.57;10.18;;;6.20;99.90;;;;;;5070523;28;20437;-64
2023/04/15 02:59:42;;;;;;;13.85;10.13;;;6.20;99.90;;;;;;5070349;28;20048;-65
2023/04/15 03:02:07;;;;;;;19.33;10.43;;;6.20;99.90;;;;;;5069087;28;20040;-65
2023/04/15 03:04:33;;;;;;;15.50;9.90;;;6.10;99.90;;;;;;5070438;28;20083;-64
2023/04/15 03:07:00;;;;;;;15.80;10.65;;;6.00;99.90;;;;;;5054982;28;20047;-64
2023/04/15 03:09:26;;;;;;;15.43;10.35;;;6.00;99.90;;;;;;5085142;28;20084;-64
2023/04/15 03:11:53;;;;;;;14.15;10.45;;;6.00;99.90;;;;;;5068453;28;20082;-65
2023/04/15 03:14:19;;;;;;;11.18;9.10;;;6.00;99.90;;;;;;5069639;28;20394;-64
2023/04/15 03:16:45;;;;;;;13.98;10.35;;;5.90;99.90;;;;;;5069012;28;20045;-64
2023/04/15 03:19:10;;;;;;;16.60;10.32;;;5.90;99.90;;;;;;5084552;28;20399;-65
2023/04/15 03:21:36;;;;;;;11.98;9.13;;;5.80;99.90;;;;;;5069394;28;20048;-64
2023/04/15 03:24:02;;;;;;;17.90;10.40;;;5.80;99.90;;;;;;5068838;28;20471;-64
2023/04/15 03:26:29;;;;;;;13.95;10.20;;;5.80;99.90;;;;;;5069009;28;20098;-65
2023/04/15 03:28:56;;;;;;;13.38;9.88;;;5.80;99.90;;;;;;5068378;28;20075;-64
2023/04/15 03:31:21;;;;;;;14.07;10.20;;;5.80;99.90;;;;;;5069624;28;20036;-64
2023/04/15 03:33:47;;;;;;;11.77;8.70;;;5.80;99.90;;;;;;5067086;28;20165;-65
2023/04/15 03:36:13;;;;;;;12.82;8.23;;;5.70;99.90;;;;;;5068682;28;20052;-65
2023/04/15 03:38:39;;;;;;;12.82;9.80;;;5.70;99.90;;;;;;5067735;28;20048;-64
2023/04/15 03:41:05;;;;;;;13.40;8.95;;;5.70;99.90;;;;;;5050589;28;20060;-65
2023/04/15 03:43:30;;;;;;;14.30;10.00;;;5.70;99.90;;;;;;5067461;28;20037;-65
2023/04/15 03:45:56;;;;;;;15.05;10.25;;;5.70;99.90;;;;;;5050039;28;20541;-65
2023/04/15 03:48:22;;;;;;;14.60;10.10;;;5.70;99.90;;;;;;5069186;28;20489;-65
2023/04/15 03:50:47;;;;;;;11.45;9.02;;;5.80;99.90;;;;;;5068186;28;20436;-65
2023/04/15 03:53:14;;;;;;;14.40;9.88;;;5.80;99.90;;;;;;5068763;28;20080;-65
2023/04/15 03:55:40;;;;;;;16.90;10.25;;;5.80;99.90;;;;;;5067013;28;20093;-65
2023/04/15 03:58:06;;;;;;;14.88;10.68;;;5.90;99.90;;;;;;5069048;28;20041;-65
2023/04/15 04:00:31;;;;;;;19.52;10.85;;;5.90;99.90;;;;;;5068897;28;20623;-65
2023/04/15 04:02:57;;;;;;;13.05;10.65;;;6.00;99.90;;;;;;5066365;28;20048;-65
2023/04/15 04:05:23;;;;;;;17.88;10.57;;;6.00;99.90;;;;;;5067980;28;20047;-65
2023/04/15 04:07:49;;;;;;;13.48;11.27;;;6.00;99.90;;;;;;5067658;28;20122;-65
2023/04/15 04:10:15;;;;;;;16.38;11.55;;;6.00;99.90;;;;;;5069200;28;20044;-65
2023/04/15 04:12:41;;;;;;;14.40;10.75;;;6.00;99.90;;;;;;5067689;28;20052;-65
2023/04/15 04:15:07;;;;;;;17.50;11.60;;;6.00;99.90;;;;;;5068657;28;20051;-65
2023/04/15 04:17:33;;;;;;;15.43;10.32;;;6.00;99.90;;;;;;5066309;28;20048;-64
2023/04/15 04:19:58;;;;;;;16.92;10.57;;;6.10;99.90;;;;;;5066349;28;20056;-65
2023/04/15 04:22:24;;;;;;;14.43;9.85;;;6.10;99.90;;;;;;5068315;28;20068;-65
2023/04/15 04:24:50;;;;;;;16.95;10.55;;;6.10;99.90;;;;;;5067148;28;20040;-65
2023/04/15 04:27:16;;;;;;;12.63;8.98;;;6.10;99.90;;;;;;5068322;28;20117;-64
2023/04/15 04:29:41;;;;;;;17.10;11.05;;;6.10;99.90;;;;;;5066629;28;20486;-65
2023/04/15 04:32:07;;;;;;;17.42;12.00;;;6.10;99.90;;;;;;5056958;28;20517;-65
2023/04/15 04:34:33;;;;;;;21.50;11.57;;;6.20;99.90;;;;;;5061371;28;20036;-65
2023/04/15 04:36:59;;;;;;;19.90;12.07;;;6.20;99.90;;;;;;5067640;28;20063;-65
2023/04/15 04:39:25;;;;;;;15.68;11.43;;;6.20;99.90;;;;;;5066510;28;20048;-65
2023/04/15 04:41:53;;;;;;;20.23;11.73;;;6.30;99.90;;;;;;5067422;28;20048;-65
2023/04/15 04:44:19;;;;;;;20.45;12.25;;;6.30;99.90;;;;;;5068545;28;20044;-65
2023/04/15 04:46:44;;;;;;;19.98;14.02;;;6.40;99.90;;;;;;5065047;28;20424;-65
2023/04/15 04:49:10;;;;;;;19.50;12.38;;;6.50;99.90;;;;;;5067909;28;20398;-65
2023/04/15 04:51:36;;;;;;;21.05;14.05;;;6.60;99.90;;;;;;5065108;28;20123;-65
2023/04/15 04:54:02;;;;;;;22.20;14.43;;;6.50;99.90;;;;;;5066630;28;20058;-65
2023/04/15 04:56:27;;;;;;;20.88;13.73;;;6.60;99.90;;;;;;5081048;28;20052;-65
2023/04/15 04:58:53;;;;;;;27.88;14.82;;;6.70;99.90;;;;;;5067578;28;20075;-65
2023/04/15 05:01:19;;;;;;;23.20;14.48;;;6.80;99.90;;;;;;5083753;28;20483;-65
2023/04/15 05:03:45;;;;;;;32.65;17.17;;;6.80;99.90;;;;;;5065662;28;20394;-65
2023/04/15 05:06:11;;;;;;;29.35;16.67;;;6.90;99.90;;;;;;5067052;28;20048;-64
2023/04/15 05:08:36;;;;;;;30.38;17.25;;;6.90;99.90;;;;;;5066172;28;20563;-65
2023/04/15 05:11:02;;;;;;;32.83;18.55;;;7.00;99.90;;;;;;5068193;28;20044;-65
2023/04/15 05:13:29;;;;;;;30.90;17.45;;;7.00;99.90;;;;;;5066430;28;20048;-65
2023/04/15 05:15:55;;;;;;;31.35;14.90;;;7.00;99.90;;;;;;5067728;28;20058;-65
2023/04/15 05:18:21;;;;;;;26.23;15.38;;;7.10;99.90;;;;;;5066281;28;20052;-64
2023/04/15 05:20:48;;;;;;;21.27;13.35;;;7.10;99.90;;;;;;5066549;28;20096;-65
2023/04/15 05:23:15;;;;;;;28.33;15.35;;;7.10;99.90;;;;;;5068205;28;20049;-65
2023/04/15 05:25:41;;;;;;;23.77;13.52;;;7.10;99.90;;;;;;5064802;28;20110;-65
2023/04/15 05:28:07;;;;;;;21.77;11.75;;;7.20;99.90;;;;;;5067623;28;20060;-65
2023/04/15 05:30:32;;;;;;;24.02;12.95;;;7.20;99.90;;;;;;5066418;28;20075;-65
2023/04/15 05:32:58;;;;;;;18.88;11.57;;;7.20;99.90;;;;;;5083152;28;20044;-64
2023/04/15 05:35:24;;;;;;;21.08;12.50;;;7.20;99.90;;;;;;5065247;28;20529;-65
2023/04/15 05:37:50;;;;;;;16.30;9.95;;;7.20;99.90;;;;;;5064356;28;20439;-65
2023/04/15 05:40:16;;;;;;;15.50;11.07;;;7.20;99.90;;;;;;5053690;28;20040;-65
2023/04/15 05:42:41;;;;;;;17.40;11.25;;;7.20;99.90;;;;;;5066263;28;20072;-65
2023/04/15 05:45:08;;;;;;;15.55;10.93;;;7.20;99.90;;;;;;5067794;28;20190;-65
2023/04/15 05:47:37;;;;;;;14.73;9.60;;;7.30;99.90;;;;;;5065462;28;20406;-65
2023/04/15 05:50:03;;;;;;;20.52;11.48;;;7.30;99.90;;;;;;5066448;28;20282;-65
2023/04/15 05:52:30;;;;;;;19.92;10.75;;;7.30;99.90;;;;;;5066251;28;20041;-65
2023/04/15 05:54:56;;;;;;;15.73;10.18;;;7.30;99.90;;;;;;5053013;28;20048;-65
2023/04/15 05:57:22;;;;;;;18.60;10.07;;;7.30;99.90;;;;;;5067233;28;20041;-65
2023/04/15 05:59:48;;;;;;;16.80;9.82;;;7.40;99.90;;;;;;5068012;28;20363;-65
2023/04/15 06:02:14;;;;;;;13.80;9.15;;;7.30;99.90;;;;;;5064858;28;20052;-65
2023/04/15 06:04:39;;;;;;;17.27;9.65;;;7.40;99.90;;;;;;5069762;28;20051;-64
2023/04/15 06:07:05;;;;;;;14.57;9.57;;;7.40;99.90;;;;;;5071253;28;20041;-65
2023/04/15 06:09:31;;;;;;;15.75;9.48;;;7.40;99.90;;;;;;5069716;28;20478;-65
2023/04/15 06:11:58;;;;;;;17.52;9.40;;;7.40;99.90;;;;;;5071303;28;20395;-65
2023/04/15 06:14:23;;;;;;;15.73;9.38;;;7.40;99.90;;;;;;5070638;28;20149;-64
2023/04/15 06:16:50;;;;;;;12.40;9.40;;;7.40;99.90;;;;;;5070325;28;20083;-64
2023/04/15 06:19:15;;;;;;;15.63;9.27;;;7.50;99.90;;;;;;5070862;28;20052;-78
2023/04/15 06:21:41;;;;;;;14.25;9.02;;;7.40;99.90;;;;;;5069791;28;20487;-65
2023/04/15 06:24:07;;;;;;;17.33;8.93;;;7.50;99.90;;;;;;5071082;28;20097;-65
2023/04/15 06:26:33;;;;;;;12.50;7.80;;;7.60;99.90;;;;;;5069610;28;20052;-65
2023/04/15 06:28:58;;;;;;;14.00;9.02;;;7.60;99.90;;;;;;5049020;28;20045;-64
2023/04/15 06:31:24;;;;;;;14.40;8.80;;;7.60;99.90;;;;;;5068109;28;20045;-64
2023/04/15 06:33:50;;;;;;;16.77;9.63;;;7.70;99.90;;;;;;5070029;28;20044;-65
2023/04/15 06:36:15;;;;;;;16.70;9.88;;;7.70;99.90;;;;;;5070468;28;20049;-65
2023/04/15 06:38:41;;;;;;;17.95;9.50;;;7.80;99.90;;;;;;5068027;28;20040;-65
2023/04/15 06:41:07;;;;;;;14.23;9.05;;;7.80;99.90;;;;;;5070605;28;20510;-64
2023/04/15 06:43:33;;;;;;;17.23;9.45;;;7.80;99.90;;;;;;5069175;28;20050;-64
2023/04/15 06:45:58;;;;;;;11.05;8.02;;;7.80;99.90;;;;;;5068957;28;20139;-64
2023/04/15 06:48:24;;;;;;;13.27;7.55;;;7.80;99.90;;;;;;5069041;28;20037;-64
2023/04/15 06:50:50;;;;;;;11.13;6.22;;;7.90;99.90;;;;;;5048864;28;20033;-65
2023/04/15 06:53:16;;;;;;;10.77;7.55;;;8.00;99.90;;;;;;5065892;28;20045;-65
2023/04/15 06:55:42;;;;;;;18.70;7.13;;;8.00;99.90;;;;;;5061726;28;20036;-65
2023/04/15 06:58:07;;;;;;;12.77;7.50;;;8.00;99.90;;;;;;5064845;28;20119;-78
2023/04/15 07:00:33;;;;;;;12.45;6.93;;;8.10;99.90;;;;;;5069526;28;20506;-65
2023/04/15 07:03:02;;;;;;;11.57;6.68;;;8.10;99.90;;;;;;5072770;28;20032;-65
2023/04/15 07:05:29;;;;;;;7.45;4.53;;;8.10;99.90;;;;;;5064527;28;20040;-66
2023/04/15 07:07:56;;;;;;;9.48;4.82;;;8.10;99.90;;;;;;5068835;28;20537;-65
2023/04/15 07:10:21;;;;;;;6.38;4.47;;;8.10;99.90;;;;;;5064350;28;20125;-65
2023/04/15 07:12:49;;;;;;;7.28;3.78;;;8.20;99.90;;;;;;5052698;28;20852;-65
2023/04/15 07:15:15;;;;;;;6.22;3.60;;;8.20;99.90;;;;;;5057669;28;20048;-67
2023/04/15 07:17:44;;;;;;;11.73;4.43;;;8.30;99.90;;;;;;5055570;28;20048;-65
2023/04/15 07:20:11;;;;;;;8.30;3.78;;;8.30;99.90;;;;;;5069767;28;20056;-64
2023/04/15 07:22:37;;;;;;;7.50;4.90;;;8.30;99.90;;;;;;5051868;28;20045;-64
2023/04/15 07:25:03;;;;;;;6.35;4.57;;;8.40;99.90;;;;;;5053829;28;20080;-65
2023/04/15 07:27:29;;;;;;;6.55;4.35;;;8.40;99.90;;;;;;5054042;28;20083;-64
2023/04/15 07:29:55;;;;;;;8.35;4.53;;;8.50;99.90;;;;;;5063058;28;20053;-64
2023/04/15 07:32:21;;;;;;;6.03;4.05;;;8.60;99.90;;;;;;5064619;28;20071;-65
2023/04/15 07:34:47;;;;;;;9.27;4.53;;;8.60;99.90;;;;;;5055322;28;20157;-65
2023/04/15 07:37:13;;;;;;;7.70;4.07;;;8.70;99.90;;;;;;5063476;28;20056;-64
2023/04/15 07:39:39;;;;;;;4.68;3.45;;;8.60;99.90;;;;;;5064330;28;20708;-64
2023/04/15 07:42:05;;;;;;;4.97;3.20;;;8.60;99.90;;;;;;5062542;28;20135;-64
2023/04/15 07:44:30;;;;;;;7.35;3.35;;;8.70;99.90;;;;;;5064420;28;20045;-70
2023/04/15 07:46:56;;;;;;;4.13;3.47;;;8.70;99.90;;;;;;5055783;28;20044;-64
2023/04/15 07:49:22;;;;;;;8.32;3.22;;;8.80;99.90;;;;;;5066254;28;20474;-65
2023/04/15 07:51:49;;;;;;;6.05;3.03;;;8.80;99.90;;;;;;5052367;28;20037;-65
2023/04/15 07:54:15;;;;;;;13.23;3.10;;;8.70;99.90;;;;;;5078172;28;20044;-65
2023/04/15 07:56:41;;;;;;;3.50;2.35;;;8.60;99.90;;;;;;5054260;28;20037;-64
2023/04/15 07:59:06;;;;;;;3.58;2.88;;;8.70;99.90;;;;;;5066585;28;20106;-72
2023/04/15 08:01:32;;;;;;;3.80;2.72;;;8.70;99.90;;;;;;5056611;28;20048;-69
2023/04/15 08:03:58;;;;;;;4.85;2.72;;;8.70;99.90;;;;;;5062705;28;20138;-64
2023/04/15 08:06:24;;;;;;;9.27;2.80;;;8.70;99.90;;;;;;5064970;28;20071;-65
2023/04/15 08:08:50;;;;;;;5.13;2.75;;;8.50;99.90;;;;;;5064573;28;20032;-65
2023/04/15 08:11:16;;;;;;;6.82;3.65;;;8.50;99.90;;;;;;5055012;28;20518;-65
2023/04/15 08:13:42;;;;;;;5.28;3.08;;;8.50;99.90;;;;;;5063691;28;20056;-64
2023/04/15 08:16:21;;;;;;;5.82;2.63;;;8.60;99.90;;;;;;5055461;28;20124;-64
2023/04/15 08:18:48;;;;;;;3.92;1.80;;;8.60;99.90;;;;;;5058268;28;20128;-65
2023/04/15 08:21:15;;;;;;;5.97;2.75;;;8.60;99.90;;;;;;5050989;28;20044;-64
2023/04/15 08:23:41;;;;;;;4.32;2.10;;;8.60;99.90;;;;;;5058762;28;20044;-65
2023/04/15 08:26:08;;;;;;;5.57;1.70;;;8.60;99.90;;;;;;5063894;28;20409;-65
2023/04/15 08:28:34;;;;;;;5.68;1.92;;;8.50;99.90;;;;;;5067088;28;20158;-64
2023/04/15 08:31:00;;;;;;;10.38;2.60;;;8.50;99.90;;;;;;5054061;28;20041;-65
2023/04/15 08:33:27;;;;;;;4.97;2.58;;;8.60;99.90;;;;;;5065734;28;20068;-75
2023/04/15 08:35:53;;;;;;;4.03;2.45;;;8.70;99.90;;;;;;5061045;28;20052;-78
2023/04/15 08:38:19;;;;;;;6.53;2.20;;;8.80;99.90;;;;;;5063556;28;20047;-65
2023/04/15 08:40:45;;;;;;;5.72;2.10;;;8.80;99.90;;;;;;5064291;28;20040;-65
2023/04/15 08:43:29;;;;;;;4.35;1.65;;;8.90;99.90;;;;;;5063194;28;20495;-65
2023/04/15 08:45:55;;;;;;;5.20;2.28;;;9.00;99.90;;;;;;5064570;28;20044;-65
2023/04/15 08:48:23;;;;;;;8.10;2.83;;;8.90;99.90;;;;;;5077802;28;20369;-65
2023/04/15 08:50:51;;;;;;;4.25;1.85;;;8.80;99.90;;;;;;5066531;28;20166;-65
2023/04/15 08:53:17;;;;;;;10.75;2.40;;;8.80;99.90;;;;;;5063618;28;20037;-65
2023/04/15 08:55:45;;;;;;;5.28;2.15;;;8.80;99.90;;;;;;5065239;28;20129;-80
2023/04/15 08:58:12;;;;;;;6.88;2.97;;;8.90;99.90;;;;;;5063622;28;20541;-65
2023/04/15 09:00:39;;;;;;;9.63;2.00;;;8.90;99.90;;;;;;5080862;28;20053;-78
2023/04/15 09:03:06;;;;;;;9.38;2.28;;;9.00;99.90;;;;;;5057107;28;20045;-67
2023/04/15 09:05:33;;;;;;;10.02;2.20;;;9.00;99.90;;;;;;5047512;28;20037;-65
2023/04/15 09:08:01;;;;;;;10.93;2.47;;;8.90;99.90;;;;;;5056478;28;20055;-65
2023/04/15 09:10:27;;;;;;;8.30;2.00;;;8.90;99.90;;;;;;5064486;28;20041;-64
2023/04/15 09:12:53;;;;;;;8.75;2.22;;;8.90;99.90;;;;;;5067094;28;20049;-64
2023/04/15 09:15:20;;;;;;;3.25;1.65;;;8.90;99.90;;;;;;5054474;28;20491;-65
2023/04/15 09:17:47;;;;;;;8.68;2.20;;;8.90;99.90;;;;;;5062719;28;20052;-65
2023/04/15 09:20:15;;;;;;;9.23;2.58;;;8.90;99.90;;;;;;5047206;28;20127;-64
2023/04/15 09:22:41;;;;;;;9.35;2.45;;;8.90;99.90;;;;;;5050054;28;20541;-64
2023/04/15 09:25:28;;;;;;;4.40;1.75;;;8.90;99.90;;;;;;5054894;28;20037;-65
2023/04/15 09:28:00;;;;;;;8.57;2.33;;;8.90;99.90;;;;;;5048010;28;20064;-64
2023/04/15 09:30:29;;;;;;;8.07;2.60;;;8.90;99.90;;;;;;5048550;28;20049;-65
2023/04/15 09:33:09;;;;;;;5.88;2.22;;;9.00;99.90;;;;;;5049136;28;20040;-64
2023/04/15 09:35:36;;;;;;;4.80;1.85;;;9.00;99.90;;;;;;5056210;28;20057;-64
2023/04/15 09:38:08;;;;;;;7.30;2.42;;;9.00;99.90;;;;;;5063894;28;20036;-79
2023/04/15 09:40:39;;;;;;;6.38;1.80;;;9.10;99.90;;;;;;5047411;28;20150;-70
2023/04/15 09:43:07;;;;;;;8.05;2.88;;;9.10;99.90;;;;;;5063190;28;20041;-64
2023/04/15 09:45:34;;;;;;;8.00;2.28;;;9.10;99.90;;;;;;5063794;28;20554;-64
2023/04/15 09:48:16;;;;;;;4.72;1.65;;;9.00;99.90;;;;;;5064444;28;20048;-64
2023/04/15 09:50:42;;;;;;;4.63;1.95;;;9.00;99.90;;;;;;5056831;28;20112;-64
2023/04/15 09:53:12;;;;;;;4.13;1.60;;;9.00;99.90;;;;;;5055960;28;20033;-64
2023/04/15 09:55:38;;;;;;;4.70;1.30;;;9.00;99.90;;;;;;5054094;28;20029;-65
2023/04/15 09:58:16;;;;;;;5.30;2.10;;;9.10;99.90;;;;;;5054434;28;20414;-65
2023/04/15 10:00:42;;;;;;;8.65;2.00;;;9.20;99.90;;;;;;5052368;28;20124;-69
2023/04/15 10:03:09;;;;;;;14.05;2.17;;;9.30;99.90;;;;;;5056329;28;20551;-64
2023/04/15 10:05:36;;;;;;;9.07;2.05;;;9.20;99.90;;;;;;5051890;28;20563;-72
2023/04/15 10:08:03;;;;;;;12.10;2.80;;;9.20;99.90;;;;;;5068428;28;20060;-67
2023/04/15 10:10:29;;;;;;;9.20;2.05;;;9.30;99.90;;;;;;5061384;28;20086;-64
2023/04/15 10:12:56;;;;;;;5.95;2.10;;;9.30;99.90;;;;;;5055620;28;20052;-65
2023/04/15 10:15:23;;;;;;;8.38;1.90;;;9.30;99.90;;;;;;5057258;28;20041;-65
2023/04/15 10:17:52;;;;;;;7.78;2.00;;;9.40;99.90;;;;;;5050985;28;20450;-68
2023/04/15 10:20:19;;;;;;;7.95;2.25;;;9.40;99.90;;;;;;5049232;28;20049;-65
2023/04/15 10:22:46;;;;;;;9.18;2.35;;;9.40;99.90;;;;;;5052116;28;20553;-64
2023/04/15 10:25:14;;;;;;;5.93;2.20;;;9.30;99.90;;;;;;5049526;28;20052;-64
2023/04/15 10:27:41;;;;;;;7.65;1.80;;;9.20;99.90;;;;;;5051966;28;20059;-65
2023/04/15 10:30:08;;;;;;;6.97;1.98;;;9.20;99.90;;;;;;5065061;28;20088;-64
2023/04/15 10:32:34;;;;;;;5.85;1.77;;;9.20;99.90;;;;;;5059669;28;20119;-64
2023/04/15 10:35:00;;;;;;;5.25;1.58;;;9.10;99.90;;;;;;5049174;28;20057;-64
2023/04/15 10:37:37;;;;;;;5.63;2.00;;;9.00;99.90;;;;;;5059918;28;20048;-65
2023/04/15 10:40:30;;;;;;;5.35;1.90;;;9.00;99.90;;;;;;5051146;28;20448;-65
2023/04/15 10:43:00;;;;;;;3.78;1.60;;;8.90;99.90;;;;;;5052361;28;20170;-65
2023/04/15 10:45:27;;;;;;;;;;;8.90;99.90;;;;;;5053434;28;20052;-72
2023/04/15 10:47:57;;;;;;;7.50;2.08;;;8.90;99.90;;;;;;5050453;28;19953;-65
2023/04/15 10:50:26;;;;;;;6.03;2.10;;;8.90;99.90;;;;;;5060531;28;20116;-66
2023/04/15 10:52:52;;;;;;;8.48;2.38;;;8.80;99.90;;;;;;5058056;28;20033;-65
2023/04/15 10:55:22;;;;;;;9.45;2.20;;;8.80;99.90;;;;;;5057000;28;20048;-65
2023/04/15 10:57:53;;;;;;;10.52;2.50;;;8.80;99.90;;;;;;5066254;28;20182;-66
2023/04/15 11:00:21;;;;;;;10.93;2.03;;;8.70;99.90;;;;;;5081999;28;20047;-65
2023/04/15 11:03:07;;;;;;;5.53;1.63;;;8.90;99.90;;;;;;5070235;28;20041;-65
2023/04/15 11:05:42;;;;;;;8.15;2.17;;;8.90;99.90;;;;;;5055006;28;20052;-65
2023/04/15 11:08:12;;;;;;;11.25;2.13;;;8.80;99.90;;;;;;5066428;28;20171;-66
2023/04/15 11:10:37;;;;;;;8.38;1.88;;;8.90;99.90;;;;;;5068517;28;20520;-65
2023/04/15 11:13:13;;;;;;;9.13;2.10;;;8.80;99.90;;;;;;5062559;28;20049;-79
2023/04/15 11:15:40;;;;;;;4.30;1.50;;;8.70;99.90;;;;;;5059113;28;20111;-64
2023/04/15 11:18:12;;;;;;;8.63;2.13;;;8.80;99.90;;;;;;5062006;28;20048;-65
2023/04/15 11:20:43;;;;;;;6.90;2.28;;;8.70;99.90;;;;;;5067131;28;20124;-65
2023/04/15 11:23:09;;;;;;;6.28;2.35;;;8.70;99.90;;;;;;5069626;28;20140;-65
2023/04/15 11:25:39;;;;;;;10.57;2.03;;;8.70;99.90;;;;;;5056686;28;20045;-64
2023/04/15 11:28:06;;;;;;;11.40;2.97;;;8.70;99.90;;;;;;5034841;28;20033;-64
2023/04/15 11:30:34;;;;;;;13.73;2.30;;;8.70;99.90;;;;;;5048320;28;20053;-79
2023/04/15 11:33:03;;;;;;;12.95;2.33;;;8.70;99.90;;;;;;5055937;28;20037;-64
2023/04/15 11:35:29;;;;;;;11.18;1.95;;;8.70;99.90;;;;;;5057263;28;20049;-75
2023/04/15 11:37:55;;;;;;;8.63;2.28;;;8.70;99.90;;;;;;5057742;28;20060;-68
2023/04/15 11:40:26;;;;;;;14.15;2.03;;;8.70;99.90;;;;;;5060914;28;20051;-63
2023/04/15 11:43:12;;;;;;;14.02;2.35;;;8.70;99.90;;;;;;5056503;28;20399;-65
2023/04/15 11:45:51;;;;;;;15.30;2.15;;;8.60;99.90;;;;;;5050343;28;20037;-64
2023/04/15 11:48:18;;;;;;;9.45;1.58;;;8.60;99.90;;;;;;5049650;28;20039;-65
2023/04/15 11:50:43;;;;;;;11.25;2.03;;;8.70;99.90;;;;;;5054716;28;20568;-64
2023/04/15 11:53:12;;;;;;;9.15;2.03;;;8.70;99.90;;;;;;5054569;28;20040;-64
2023/04/15 11:55:52;;;;;;;10.52;1.80;;;8.70;99.90;;;;;;5058745;28;20067;-64
2023/04/15 11:58:23;;;;;;;11.48;1.88;;;8.70;99.90;;;;;;5060494;28;20505;-66
2023/04/15 12:00:59;;;;;;;16.38;2.35;;;8.60;99.90;;;;;;5061796;28;20044;-74
2023/04/15 12:03:34;;;;;;;16.95;2.55;;;8.60;99.90;;;;;;5059495;28;20056;-65
2023/04/15 12:06:13;;;;;;;14.88;2.88;;;8.60;99.90;;;;;;5056317;28;20136;-65
2023/04/15 12:08:58;;;;;;;14.98;1.85;;;8.60;99.90;;;;;;5055896;28;20052;-79
2023/04/15 12:11:30;;;;;;;11.60;2.20;;;8.60;99.90;;;;;;5055652;28;20102;-69
2023/04/15 12:14:07;;;;;;;12.63;2.45;;;8.70;99.90;;;;;;5068896;28;20076;-65
2023/04/15 12:16:41;;;;;;;13.18;2.22;;;8.60;99.90;;;;;;5067747;28;20045;-64
2023/04/15 12:19:10;;;;;;;12.75;1.65;;;8.50;99.90;;;;;;5069162;28;20040;-64
2023/04/15 12:21:38;;;;;;;16.52;1.90;;;8.50;99.90;;;;;;5067440;28;20040;-64
2023/04/15 12:24:06;;;;;;;13.32;2.20;;;8.50;99.90;;;;;;5068393;28;20040;-64
2023/04/15 12:26:37;;;;;;;13.57;1.95;;;8.60;99.90;;;;;;5067920;28;20040;-64
2023/04/15 12:29:07;;;;;;;;;;;8.50;99.90;;;;;;5068411;28;20060;-68
2023/04/15 12:31:35;;;;;;;11.43;2.38;;;8.50;99.90;;;;;;5068434;28;19921;-64
2023/04/15 12:34:02;;;;;;;11.65;2.30;;;8.60;99.90;;;;;;5066758;28;20115;-65
2023/04/15 12:36:30;;;;;;;12.90;2.17;;;8.60;99.90;;;;;;5042314;28;20040;-64
2023/04/15 12:38:56;;;;;;;6.95;1.80;;;8.70;99.90;;;;;;5067202;28;20040;-85
2023/04/15 12:41:23;;;;;;;15.10;2.42;;;8.60;99.90;;;;;;5067916;28;20029;-64
2023/04/15 12:43:49;;;;;;;15.82;2.50;;;8.60;99.90;;;;;;5067601;28;20360;-84
2023/04/15 12:46:15;;;;;;;11.10;2.08;;;8.60;99.90;;;;;;5066031;28;20564;-65
2023/04/15 12:48:41;;;;;;;14.82;2.85;;;8.60;99.90;;;;;;5066598;28;20074;-65
2023/04/15 12:51:07;;;;;;;12.77;2.17;;;8.50;99.90;;;;;;5067313;28;20483;-65